logo
App data

Combat Core

Welcome to the Combat Core League! Battle with up to 4 players with a cast of powered up characters in a colorful sci-fi arena, or create your own! Compete with your friends or challenge yourself against AI opponents to compete for the title of the strongest.
Store | Hub | SteamDB | Site
Developer: MABManZ Publisher: MABManZ
Genre: Action, Indie, Early Access
Languages: English
Tags: Early Access (26), Action (23), Indie (22), Fighting (14), 4 Player Local (13), Local Multiplayer (13), Multiplayer (12), VR (12), Character Customization (12), Competitive (11), Anime (9)
Category: Single-player, Online Multi-Player, Local Multi-Player, Shared/Split Screen, Cross-Platform Multiplayer, Full controller support, VR Support
Release date: Aug 18, 2016
Price: $15.99
Owners: 0 .. 20,000
Followers: 1,569
Peak concurrent players yesterday: 1
Playtime total: 00:21 (average) 00:21 (median)

Steam Spy is still in beta, so expect major bugs.

Owners data:

Access restricted.

This feature is only available to users with special access rights. Sorry.

If you want to proceed, you need to register or log in first and then back Steam Spy on Patreon. Look for Indie or Pro pledge.

Don't forget to use the same email as on Steam Spy!

Audience in 2 weeks:

Access restricted.

This feature is only available to users with special access rights. Sorry.

If you want to proceed, you need to register or log in first and then back Steam Spy on Patreon. Look for Indie or Pro pledge.

Don't forget to use the same email as on Steam Spy!

Peak daily concurrent players:

CCU data courtesy of SteamDB. Used with permission.

Hourly concurrent players:

Daily Twitch stats:

Hourly Twitch stats:

YouTube:

The views data is based on top 50 videos uploaded last week. Actual number of views might be more than the number shown.

The displayed number of videos uploaded yesterday is limited to 50, so if there were more videos uploaded, the number will still show 50.

If the game has commonly used word as its name (like "FEAR" or "Volume") its number of Youtube views might be wrong.

Games similar to this one:

# Game Release date
Price
Score rank
(Userscore / Metascore)
Owners
Players
Playtime (Median)
1 Escape Goat Oct 9, 2013 $4.9997% (97%)20,000 .. 50,0000%00:00 (00:00)
2 Chicken Invaders 4 Jun 6, 2014 $4.9995% (96%)0 .. 20,0000%00:00 (00:00)
3 I and Me May 4, 2016 $9.9995% (96%)0 .. 20,0000%00:00 (00:00)
4 Transcripted $7.99N/A (N/A/78%)0 .. 20,0000%00:00 (00:00)
5 Critter Crunch Sep 11, 2012 $6.9992% (95%)50,000 .. 100,0000%00:00 (00:00)
6 Super Puzzle Platformer Deluxe May 24, 2013 $7.9990% (94%)50,000 .. 100,0000.72%00:07 (00:02)
7 Velocibox Sep 8, 2014 $7.9990% (94%)50,000 .. 100,0000%00:00 (00:00)
8 Season of 12 Colors Mar 14, 2016 $2.9990% (94%)20,000 .. 50,0000%00:00 (00:00)
9 Unmechanical Aug 8, 2012 $9.9983% (92%/74%)50,000 .. 100,0000%00:00 (00:00)
10 Inside My Radio May 11, 2015 $14.9983% (92%/68%)20,000 .. 50,0001.43%00:01 (00:00)
11 Titan Attacks! Feb 3, 2012 $9.9983% (92%)100,000 .. 200,0000%00:00 (00:00)
12 6180 the moon Sep 19, 2014 $3.9983% (92%)0 .. 20,0000%00:00 (00:00)
13 Stray Cat Crossing Aug 28, 2015 $2.9979% (91%)20,000 .. 50,0000%00:00 (00:00)
14 Canabalt Apr 30, 2015 $2.9979% (91%)20,000 .. 50,0000%00:00 (00:00)
15 Ephemerid: A Musical Adventure Feb 3, 2015 $1.9979% (91%)0 .. 20,0000%00:00 (00:00)
16 Ultratron Mar 18, 2013 $9.9976% (90%)50,000 .. 100,0000%00:00 (00:00)
17 That Dragon, Cancer Jan 11, 2016 $9.9976% (90%/78%)20,000 .. 50,0000%00:00 (00:00)
18 Lumino City Dec 2, 2014 $14.9972% (89%/70%)200,000 .. 500,0000.61%01:14 (00:48)
19 Old Man's Journey May 17, 2017 $7.9972% (89%/76%)0 .. 20,0003.85%00:45 (00:15)
20 Choice Chamber Jul 16, 2015 $9.9972% (89%)100,000 .. 200,0000.38%01:17 (00:25)
21 Bermuda Mar 17, 2015 $2.99N/A (N/A)50,000 .. 100,0000%00:00 (00:00)
22 Lumini Sep 3, 2015 $12.99N/A (N/A/69%)0 .. 20,0000%00:00 (00:00)
23 Retro/Grade Mar 20, 2013 $9.9970% (88%)50,000 .. 100,0000%00:00 (00:00)
24 Ballpoint Universe - Infinite Dec 17, 2013 $3.9967% (87%)100,000 .. 200,0000.44%02:15 (00:45)
25 Super Galaxy Squadron EX Turbo Jan 23, 2015 $9.9967% (87%)50,000 .. 100,0000%00:00 (00:00)
26 Chariot Nov 12, 2014 $14.9961% (85%/76%)50,000 .. 100,0000%00:00 (00:00)
27 Spellsworn Mar 13, 2018 Free61% (85%)100,000 .. 200,0001.79%00:55 (01:06)
28 Three Fourths Home: Extended Edition Mar 20, 2015 $4.99N/A (N/A/77%)20,000 .. 50,0000%00:00 (00:00)
29 Ben and Ed - Blood Party Feb 13, 2018 $14.9956% (83%)20,000 .. 50,0003.03%00:29 (00:19)
30 Madballs in Babo:Invasion Sep 17, 2009 $4.9956% (83%/79%)50,000 .. 100,0000%00:00 (00:00)
31 Mega Coin Squad Aug 15, 2014 $14.9956% (83%/56%)0 .. 20,0000%00:00 (00:00)
32 Instant Dungeon! Nov 25, 2014 $1.9956% (83%)0 .. 20,0000%00:00 (00:00)
33 Road Not Taken Aug 5, 2014 $14.9956% (83%/75%)20,000 .. 50,0000%00:00 (00:00)
34 The Sun and Moon Nov 14, 2014 $6.9954% (82%)20,000 .. 50,0001.08%00:05 (00:01)
35 Echo of the Wilds Jun 10, 2014 $8.9954% (82%)20,000 .. 50,0001.33%00:26 (00:08)
36 The Novelist Dec 10, 2013 $9.9951% (81%/66%)100,000 .. 200,0000%00:00 (00:00)
37 Cherry Tree High I! My! Girls! Nov 20, 2014 $3.9951% (81%)50,000 .. 100,0000%00:00 (00:00)
38 OTTTD Aug 6, 2014 $7.9949% (80%)20,000 .. 50,0000%00:00 (00:00)
39 Mini Thief Jun 13, 2016 $3.9947% (79%)20,000 .. 50,0000%00:00 (00:00)
40 Tobari and the Night of the Curious Moon May 26, 2015 $9.99N/A (N/A)0 .. 20,0000%00:00 (00:00)
41 It came from space, and ate our brains Mar 19, 2015 $9.9947% (79%)50,000 .. 100,0000%00:00 (00:00)
42 Boogeyman 2 Feb 7, 2017 $4.9947% (79%)0 .. 20,0000%00:00 (00:00)
43 NaissanceE Feb 13, 2014 $14.9947% (79%/66%)50,000 .. 100,0000%00:00 (00:00)
44 Amphora Nov 12, 2014 $13.9945% (78%)0 .. 20,0000%00:00 (00:00)
45 Polyball Dec 1, 2017 $14.9945% (78%)0 .. 20,0000%00:00 (00:00)
46 Sugar Cube: Bittersweet Factory Nov 7, 2012 $6.9945% (78%)20,000 .. 50,0000%00:00 (00:00)
47 Actual Sunlight Apr 3, 2014 $4.9945% (78%/77%)0 .. 20,0000%00:00 (00:00)
48 NEO AQUARIUM - The King of Crustaceans - Jun 8, 2015 $8.9945% (78%)20,000 .. 50,0000%00:00 (00:00)
49 Super Treasure Arena Sep 15, 2016 $7.99N/A (N/A)0 .. 20,0000%00:00 (00:00)
50 ReignMaker Apr 16, 2014 $14.99N/A (N/A)50,000 .. 100,0008.24%03:33 (03:58)
51 A Druid's Duel Feb 25, 2015 $7.9941% (76%/70%)0 .. 20,0000%00:00 (00:00)
52 Concursion Jun 6, 2014 $4.99N/A (N/A/66%)20,000 .. 50,0000%00:00 (00:00)
53 Master Spy Sep 8, 2015 $9.9941% (76%/68%)50,000 .. 100,0000%00:00 (00:00)
54 The Wonderful End of the World Jul 17, 2008 $9.9939% (75%)100,000 .. 200,0000%00:00 (00:00)
55 Dwarf Tower Dec 23, 2014 $0.9939% (75%)20,000 .. 50,0000%00:00 (00:00)
56 1979 Revolution: Black Friday Apr 4, 2016 $5.9939% (75%/80%)20,000 .. 50,0002.13%00:52 (00:17)
57 Warring States Jan 29, 2018 $18.9937% (74%)0 .. 20,0000%00:00 (00:00)
58 Really Big Sky Feb 24, 2012 $4.9937% (74%)500,000 .. 1,000,0000.1%03:07 (01:02)
59 Beyond Eyes Aug 11, 2015 $14.9935% (73%/60%)100,000 .. 200,0000.42%05:02 (01:40)
60 Disorder Jan 12, 2015 $3.9935% (73%/61%)0 .. 20,0000%00:00 (00:00)
61 RONIN Jun 30, 2015 $12.9935% (73%/70%)100,000 .. 200,0000.43%01:33 (00:31)
62 One More Line Aug 28, 2015 $2.9933% (72%)0 .. 20,0000%00:00 (00:00)
63 The Purge Day Nov 16, 2016 $0.92N/A (N/A)0 .. 20,0000%00:00 (00:00)
64 Cavern Kings Sep 30, 2014 $9.9929% (69%)0 .. 20,0000%00:00 (00:00)
65 Rhythm Destruction Jun 16, 2014 $4.99N/A (N/A)50,000 .. 100,0000%00:00 (00:00)
66 Volt Apr 14, 2014 $2.9924% (66%)50,000 .. 100,0000%00:00 (00:00)
67 Three Dead Zed Jul 7, 2014 $5.99N/A (N/A)50,000 .. 100,0000.45%00:13 (00:04)
68 Rush Bros. May 24, 2013 $9.9923% (65%)100,000 .. 200,0000.3%01:29 (00:29)
69 Orbit HD Mar 18, 2015 $0.9922% (64%)20,000 .. 50,0000%00:00 (00:00)
70 The Masterplan Jun 4, 2015 $19.9921% (63%/68%)50,000 .. 100,0000%00:00 (00:00)
71 Grass Simulator Apr 1, 2015 $4.9921% (63%)20,000 .. 50,0000%00:00 (00:00)
72 Rabbit Hole 3D: Steam Edition Apr 25, 2014 $2.9921% (63%)50,000 .. 100,0000%00:00 (00:00)
73 Montague's Mount Nov 19, 2013 $4.9921% (63%/39%)50,000 .. 100,0000%00:00 (00:00)
74 Farlight Explorers Mar 11, 2015 $14.9921% (63%)0 .. 20,0000%00:00 (00:00)
75 Canyon Capers Apr 25, 2014 $6.99N/A (N/A)200,000 .. 500,0000%00:00 (00:00)
76 Disillusions Manga Horror Jan 16, 2015 $0.9915% (58%)20,000 .. 50,0000%00:00 (00:00)
77 Party of Sin Dec 13, 2012 $5.99N/A (N/A)50,000 .. 100,0000%00:00 (00:00)
78 Team Indie Oct 8, 2014 $12.99N/A (N/A)50,000 .. 100,0000%00:00 (00:00)
79 Oblitus Feb 27, 2015 $14.999% (50%/69%)0 .. 20,0000%00:00 (00:00)
80 Evertown Jan 11, 2016 $2.999% (50%)0 .. 20,0000%00:00 (00:00)
81 Star Horizon May 28, 2015 $4.998% (48%)20,000 .. 50,0001.96%00:01 (00:00)
82 Ukrainian Ninja Dec 23, 2014 Free8% (47%)0 .. 20,0000%00:00 (00:00)
83 Vernon's Legacy Sep 23, 2016 $11.998% (47%)0 .. 20,0000%00:00 (00:00)
84 //N.P.P.D. RUSH//- The milk of Ultraviolet Feb 13, 2014 $3.995% (41%)100,000 .. 200,0000.16%04:32 (01:30)
85 Bad Hotel Oct 16, 2013 $4.992% (30%)50,000 .. 100,0000%00:00 (00:00)
86 One Late Night: Deadline Dec 22, 2014 $7.991% (24%)0 .. 20,0000%00:00 (00:00)
87 One Day For Ched Sep 12, 2014 $3.99N/A (N/A)50,000 .. 100,0000%00:00 (00:00)

Tags over time:

Access restricted.

This feature is only available to users with special access rights. Sorry.

If you want to proceed, you need to register or log in first and then back Steam Spy on Patreon. Look for Indie or Pro pledge.

Don't forget to use the same email as on Steam Spy!

Owners of this game also own:

Access restricted.

This feature is only available to users with special access rights. Sorry.

If you want to proceed, you need to register or log in first and then back Steam Spy on Patreon. Look for Indie or Pro pledge.

Don't forget to use the same email as on Steam Spy!

Playtime distribution:

Access restricted.

This feature is only available to users with special access rights. Sorry.

If you want to proceed, you need to register or log in first and then back Steam Spy on Patreon. Look for Indie or Pro pledge.

Don't forget to use the same email as on Steam Spy!

Playtime (2 weeks):

Access restricted.

This feature is only available to users with special access rights. Sorry.

If you want to proceed, you need to register or log in first and then back Steam Spy on Patreon. Look for Indie or Pro pledge.

Don't forget to use the same email as on Steam Spy!

User reviews:

Login required.

Please register or log in to see this information.